createdAt,value
2022-10-18T00:00:03.835Z,66
2022-10-18T00:01:07.974Z,66.04
2022-10-18T00:02:12.384Z,65.97
2022-10-18T00:03:16.540Z,65.96
2022-10-18T00:04:20.649Z,66.12
2022-10-18T00:05:24.903Z,66.1
2022-10-18T00:06:29.090Z,66.01
2022-10-18T00:07:34.234Z,65.94
2022-10-18T00:08:38.357Z,65.92
2022-10-18T00:09:42.482Z,65.87
2022-10-18T00:10:46.583Z,65.87
2022-10-18T00:11:50.801Z,65.89
2022-10-18T00:12:55.131Z,65.9
2022-10-18T00:13:59.225Z,65.87
2022-10-18T00:15:03.307Z,65.82
2022-10-18T00:16:07.395Z,65.89
2022-10-18T00:17:11.508Z,65.91
2022-10-18T00:18:15.653Z,65.86
2022-10-18T00:19:19.758Z,65.88
2022-10-18T00:20:23.851Z,65.84
2022-10-18T00:21:27.946Z,65.9
2022-10-18T00:22:33.383Z,65.52
2022-10-18T00:23:37.714Z,65.98
2022-10-18T00:24:41.845Z,65.95
2022-10-18T00:25:45.954Z,65.88
2022-10-18T00:26:50.087Z,65.8
2022-10-18T00:27:54.179Z,65.85
2022-10-18T00:28:58.464Z,65.94
2022-10-18T00:30:02.602Z,65.92
2022-10-18T00:31:06.719Z,65.83
2022-10-18T00:32:10.806Z,65.91
2022-10-18T00:33:14.889Z,65.94
2022-10-18T00:34:19.017Z,65.83
2022-10-18T00:35:23.114Z,65.78
2022-10-18T00:36:27.221Z,65.88
2022-10-18T00:37:31.312Z,65.8
2022-10-18T00:38:35.417Z,65.84
2022-10-18T00:39:39.792Z,65.83
2022-10-18T00:40:43.930Z,65.89
2022-10-18T00:41:48.055Z,65.8
2022-10-18T00:42:52.172Z,65.83
2022-10-18T00:43:56.269Z,65.76
2022-10-18T00:45:00.392Z,65.77
2022-10-18T00:46:04.498Z,65.76
2022-10-18T00:47:08.642Z,65.77
2022-10-18T00:48:12.751Z,65.79
2022-10-18T00:49:17.059Z,65.77
2022-10-18T00:50:21.181Z,65.75
2022-10-18T00:51:25.298Z,65.68
2022-10-18T00:52:30.465Z,65.95
2022-10-18T00:53:34.825Z,65.89
2022-10-18T00:54:38.914Z,65.81
2022-10-18T00:55:43.066Z,65.91
2022-10-18T00:56:47.192Z,65.79
2022-10-18T00:57:51.603Z,65.82
2022-10-18T00:58:55.749Z,65.86
2022-10-18T00:59:59.859Z,65.78
2022-10-18T01:01:04.012Z,65.8
2022-10-18T01:02:08.307Z,65.82
2022-10-18T01:03:12.442Z,65.87
2022-10-18T01:04:16.535Z,65.87
2022-10-18T01:05:20.656Z,65.79
2022-10-18T01:06:24.749Z,65.78
2022-10-18T01:07:29.425Z,65.82
2022-10-18T01:08:33.649Z,65.8
2022-10-18T01:09:37.752Z,65.76
2022-10-18T01:10:41.872Z,65.76
2022-10-18T01:11:45.997Z,65.78
2022-10-18T01:12:50.084Z,65.74
2022-10-18T01:13:54.232Z,65.73
2022-10-18T01:14:58.341Z,65.68
2022-10-18T01:16:02.469Z,65.76
2022-10-18T01:17:06.610Z,65.74
2022-10-18T01:18:10.743Z,65.76
2022-10-18T01:19:14.852Z,65.69
2022-10-18T01:20:18.975Z,65.6
2022-10-18T01:21:23.102Z,65.7
2022-10-18T01:22:27.216Z,65.71
2022-10-18T01:23:31.313Z,65.66
2022-10-18T01:24:35.420Z,65.64
2022-10-18T01:25:39.534Z,65.72
2022-10-18T01:26:43.622Z,65.68
2022-10-18T01:27:47.767Z,65.67
2022-10-18T01:28:52.081Z,65.66
2022-10-18T01:29:56.253Z,65.61
2022-10-18T01:31:00.376Z,65.62
2022-10-18T01:32:04.487Z,65.64
2022-10-18T01:33:08.615Z,65.65
2022-10-18T01:34:12.757Z,65.59
2022-10-18T01:35:16.855Z,65.61
2022-10-18T01:36:20.983Z,65.58
2022-10-18T01:37:25.137Z,65.61
2022-10-18T01:38:29.262Z,65.63
2022-10-18T01:39:33.364Z,65.57
2022-10-18T01:40:37.486Z,65.6
2022-10-18T01:41:41.587Z,65.6
2022-10-18T01:42:45.685Z,65.6
2022-10-18T01:43:49.777Z,65.57
2022-10-18T01:44:53.913Z,65.6
2022-10-18T01:45:58.010Z,65.57
2022-10-18T01:47:02.244Z,65.54
2022-10-18T01:48:06.339Z,65.65
2022-10-18T01:49:10.488Z,65.63
2022-10-18T01:50:14.589Z,65.64
2022-10-18T01:51:18.708Z,65.66
2022-10-18T01:52:22.798Z,65.65
2022-10-18T01:53:26.929Z,65.63
2022-10-18T01:54:31.074Z,65.63
2022-10-18T01:55:35.178Z,65.65
2022-10-18T01:56:39.568Z,65.54
2022-10-18T01:57:43.774Z,65.54
2022-10-18T01:58:47.898Z,65.47
2022-10-18T01:59:52.036Z,65.52
2022-10-18T02:00:56.142Z,65.45
2022-10-18T02:02:00.300Z,65.37
2022-10-18T02:03:04.396Z,65.41
2022-10-18T02:04:08.513Z,65.36
2022-10-18T02:05:12.619Z,65.38
2022-10-18T02:06:16.721Z,65.39
2022-10-18T02:07:20.817Z,65.33
2022-10-18T02:08:25.823Z,65.56
2022-10-18T02:09:29.977Z,65.51
2022-10-18T02:10:34.104Z,65.41
2022-10-18T02:11:38.182Z,65.45
2022-10-18T02:12:42.407Z,65.41
2022-10-18T02:13:46.514Z,65.44
2022-10-18T02:14:50.643Z,65.36
2022-10-18T02:15:54.752Z,65.41
2022-10-18T02:16:58.859Z,65.41
2022-10-18T02:18:02.958Z,65.52
2022-10-18T02:19:07.072Z,65.49
2022-10-18T02:20:11.187Z,65.4
2022-10-18T02:21:15.351Z,65.42
2022-10-18T02:22:19.477Z,65.47
2022-10-18T02:23:23.611Z,65.41
2022-10-18T02:24:27.732Z,65.45
2022-10-18T02:25:31.837Z,65.47
2022-10-18T02:26:35.947Z,65.42
2022-10-18T02:27:40.063Z,65.42
2022-10-18T02:28:44.201Z,65.35
2022-10-18T02:29:48.349Z,65.38
2022-10-18T02:30:52.553Z,65.32
2022-10-18T02:31:56.654Z,65.33
2022-10-18T02:33:00.774Z,65.4
2022-10-18T02:34:04.866Z,65.42
2022-10-18T02:35:08.967Z,65.33
2022-10-18T02:36:13.065Z,65.32
2022-10-18T02:37:17.517Z,65.28
2022-10-18T02:38:21.652Z,65.02
2022-10-18T02:39:25.759Z,64.76
2022-10-18T02:40:29.886Z,64.54
2022-10-18T02:41:34.020Z,64.31
2022-10-18T02:42:38.140Z,64.06
2022-10-18T02:43:42.227Z,63.83
2022-10-18T02:44:46.350Z,63.64
2022-10-18T02:45:50.527Z,63.5
2022-10-18T02:46:54.629Z,63.29
2022-10-18T02:47:58.814Z,63.11
2022-10-18T02:49:02.917Z,62.95
2022-10-18T02:50:07.018Z,62.73
2022-10-18T02:51:11.125Z,62.73
2022-10-18T02:52:15.241Z,62.71
2022-10-18T02:53:19.370Z,62.57
2022-10-18T02:54:23.478Z,62.39
2022-10-18T02:56:32.763Z,62.53
2022-10-18T02:57:37.069Z,62.55
2022-10-18T02:58:41.202Z,62.55
2022-10-18T02:59:45.295Z,62.69
2022-10-18T03:00:49.411Z,62.71
2022-10-18T03:01:53.739Z,62.83
2022-10-18T03:02:57.877Z,62.72
2022-10-18T03:04:01.969Z,62.74
2022-10-18T03:05:06.083Z,62.84
2022-10-18T03:06:10.198Z,62.77
2022-10-18T03:07:14.306Z,62.89
2022-10-18T03:08:18.433Z,62.74
2022-10-18T03:09:22.572Z,62.67
2022-10-18T03:10:26.681Z,62.53
2022-10-18T03:11:30.793Z,62.5
2022-10-18T03:12:34.928Z,62.29
2022-10-18T03:13:39.034Z,62.14
2022-10-18T03:14:43.153Z,62.13
2022-10-18T03:15:47.276Z,62.17
2022-10-18T03:16:51.378Z,62.09
2022-10-18T03:17:55.487Z,62.1
2022-10-18T03:18:59.571Z,62.06
2022-10-18T03:20:03.707Z,62.08
2022-10-18T03:21:07.829Z,62.17
2022-10-18T03:22:11.970Z,62.27
2022-10-18T03:23:16.115Z,62.36
2022-10-18T03:24:20.217Z,62.42
2022-10-18T03:25:24.328Z,62.41
2022-10-18T03:26:28.469Z,62.49
2022-10-18T03:27:33.715Z,62.6
2022-10-18T03:28:38.173Z,62.58
2022-10-18T03:29:42.299Z,62.52
2022-10-18T03:30:46.420Z,62.54
2022-10-18T03:31:50.538Z,62.43
2022-10-18T03:32:54.659Z,62.3
2022-10-18T03:33:58.818Z,62.08
2022-10-18T03:35:02.964Z,61.58
2022-10-18T03:36:07.124Z,60.41
2022-10-18T03:37:11.246Z,60.43
2022-10-18T03:38:15.359Z,60.95
2022-10-18T03:39:19.490Z,60.01
2022-10-18T03:40:23.818Z,60.31
2022-10-18T03:41:27.941Z,59.92
2022-10-18T03:42:33.232Z,59.91
2022-10-18T03:43:37.555Z,59.91
2022-10-18T03:44:41.700Z,59.83
2022-10-18T03:45:45.810Z,59.91
2022-10-18T03:46:49.916Z,59.83
2022-10-18T03:47:54.008Z,60.05
2022-10-18T03:48:58.130Z,60
2022-10-18T03:50:02.285Z,60.07
2022-10-18T03:51:06.415Z,60.45
2022-10-18T03:52:10.558Z,59.85
2022-10-18T03:53:14.730Z,60.35
2022-10-18T03:54:18.832Z,59.86
2022-10-18T03:55:22.971Z,59.7
2022-10-18T03:56:27.083Z,59.74
2022-10-18T03:57:31.176Z,59.73
2022-10-18T03:58:35.308Z,59.71
2022-10-18T03:59:39.429Z,59.63
2022-10-18T04:00:43.554Z,59.79
2022-10-18T04:01:47.965Z,60.1
2022-10-18T04:02:57.157Z,60.39
2022-10-18T04:04:01.251Z,60.02
2022-10-18T04:05:05.358Z,59.56
2022-10-18T04:06:09.489Z,59.9
2022-10-18T04:07:13.591Z,60.33
2022-10-18T04:08:17.704Z,60.04
2022-10-18T04:09:21.813Z,59.84
2022-10-18T04:10:25.948Z,59.83
2022-10-18T04:11:30.056Z,59.86
2022-10-18T04:12:34.891Z,60.03
2022-10-18T04:13:39.086Z,59.9
2022-10-18T04:14:43.374Z,59.88
2022-10-18T04:15:47.474Z,59.91
2022-10-18T04:16:51.976Z,60.06
2022-10-18T04:17:56.218Z,59.75
2022-10-18T04:19:00.699Z,60.42
2022-10-18T04:20:04.837Z,60.7
2022-10-18T04:21:08.955Z,60.76
2022-10-18T04:22:13.118Z,60.75
2022-10-18T04:23:17.237Z,60.75
2022-10-18T04:24:21.363Z,60.74
2022-10-18T04:25:25.538Z,60.89
2022-10-18T04:26:29.639Z,60.9
2022-10-18T04:27:35.001Z,60.9
2022-10-18T04:28:39.508Z,60.91
2022-10-18T04:29:43.645Z,61.05
2022-10-18T04:30:47.776Z,61.26
2022-10-18T04:31:51.872Z,61.33
2022-10-18T04:32:56.059Z,61.3
2022-10-18T04:34:00.200Z,61.4
2022-10-18T04:35:04.282Z,61.68
2022-10-18T04:36:08.406Z,62
2022-10-18T04:37:12.517Z,62.63
2022-10-18T04:38:16.632Z,62.3
2022-10-18T04:39:20.826Z,62.08
2022-10-18T04:40:24.944Z,61.88
2022-10-18T04:41:29.042Z,61.91
2022-10-18T04:42:33.184Z,62
2022-10-18T04:43:37.460Z,61.95
2022-10-18T04:44:41.580Z,61.62
2022-10-18T04:45:45.714Z,61.67
2022-10-18T04:46:49.850Z,61.73
2022-10-18T04:47:53.960Z,61.79
2022-10-18T04:48:58.105Z,61.65
2022-10-18T04:50:02.242Z,61.8
2022-10-18T04:51:06.363Z,61.61
2022-10-18T04:52:10.446Z,61.21
2022-10-18T04:53:14.567Z,61.36
2022-10-18T04:54:18.692Z,61.61
2022-10-18T04:55:22.884Z,61.8
2022-10-18T04:56:27.017Z,61.86
2022-10-18T04:57:32.181Z,61.71
2022-10-18T04:58:36.403Z,61.03
2022-10-18T04:59:40.547Z,61.08
2022-10-18T05:00:44.741Z,61.29
2022-10-18T05:01:49.307Z,61.5
2022-10-18T05:02:53.458Z,61.68
2022-10-18T05:03:57.557Z,61.9
2022-10-18T05:05:01.672Z,62.05
2022-10-18T05:06:05.827Z,62.19
2022-10-18T05:07:09.958Z,62.25
2022-10-18T05:08:14.080Z,62.3
2022-10-18T05:09:18.219Z,62.44
2022-10-18T05:10:22.362Z,62.42
2022-10-18T05:11:26.461Z,62.44
2022-10-18T05:12:31.004Z,62.44
2022-10-18T05:13:35.303Z,62.4
2022-10-18T05:14:39.427Z,62.38
2022-10-18T05:15:43.582Z,62.37
2022-10-18T05:16:47.719Z,62.29
2022-10-18T05:17:51.853Z,62.26
2022-10-18T05:18:55.986Z,62.4
2022-10-18T05:20:00.230Z,62.52
2022-10-18T05:21:04.415Z,62.61
2022-10-18T05:22:08.554Z,62.62
2022-10-18T05:23:12.752Z,62.51
2022-10-18T05:24:16.868Z,62.43
2022-10-18T05:25:20.984Z,62.46
2022-10-18T05:26:25.119Z,62.45
2022-10-18T05:27:29.236Z,62.44
2022-10-18T05:28:42.538Z,62.35
2022-10-18T05:29:46.711Z,62.38
2022-10-18T05:30:50.844Z,62.38
2022-10-18T05:31:54.958Z,62.46
2022-10-18T05:32:59.078Z,62.52
2022-10-18T05:34:03.205Z,62.6
2022-10-18T05:35:07.301Z,62.67
2022-10-18T05:36:11.415Z,62.66
2022-10-18T05:37:15.514Z,62.68
2022-10-18T05:38:19.630Z,62.7
2022-10-18T05:39:23.728Z,62.68
2022-10-18T05:40:27.858Z,62.66
2022-10-18T05:41:31.967Z,62.67
2022-10-18T05:42:36.407Z,62.6
2022-10-18T05:43:40.542Z,62.56
2022-10-18T05:44:44.660Z,62.59
2022-10-18T05:45:48.815Z,62.57
2022-10-18T05:46:52.950Z,62.61
2022-10-18T05:47:57.060Z,62.61
2022-10-18T05:49:01.242Z,62.63
2022-10-18T05:50:05.401Z,62.64
2022-10-18T05:51:09.555Z,62.64
2022-10-18T05:52:13.706Z,62.61
2022-10-18T05:53:39.020Z,62.58
2022-10-18T05:54:43.147Z,62.62
2022-10-18T05:55:47.294Z,62.6
2022-10-18T05:56:51.436Z,62.57
2022-10-18T05:57:55.542Z,62.58
2022-10-18T05:58:59.668Z,62.57
2022-10-18T06:00:03.853Z,62.59
2022-10-18T06:01:07.966Z,62.56
2022-10-18T06:02:12.257Z,62.52
2022-10-18T06:03:16.480Z,62.51
2022-10-18T06:04:20.592Z,62.5
2022-10-18T06:05:24.713Z,62.51
2022-10-18T06:06:28.819Z,62.45
2022-10-18T06:07:34.073Z,62.45
2022-10-18T06:08:38.508Z,62.38
2022-10-18T06:09:42.630Z,62.43
2022-10-18T06:10:46.810Z,62.43
2022-10-18T06:11:50.921Z,62.46
2022-10-18T06:12:55.048Z,62.45
2022-10-18T06:13:59.156Z,62.5
2022-10-18T06:15:03.286Z,62.46
2022-10-18T06:16:07.398Z,62.42
2022-10-18T06:17:11.546Z,62.4
2022-10-18T06:18:15.668Z,62.39
2022-10-18T06:19:19.830Z,62.28
2022-10-18T06:20:23.964Z,62.3
2022-10-18T06:21:28.085Z,62.24
2022-10-18T06:22:32.220Z,62.31
2022-10-18T06:23:36.347Z,62.26
2022-10-18T06:24:40.479Z,62.21
2022-10-18T06:25:44.638Z,62.28
2022-10-18T06:26:48.759Z,62.33
2022-10-18T06:27:52.869Z,62.21
2022-10-18T06:28:57.318Z,62.12
2022-10-18T06:30:01.474Z,62.2
2022-10-18T06:31:05.602Z,62.25
2022-10-18T06:32:09.711Z,62.18
2022-10-18T06:33:14.297Z,62.15
2022-10-18T06:34:18.416Z,62.2
2022-10-18T06:35:22.524Z,62.2
2022-10-18T06:36:26.619Z,62.23
2022-10-18T06:37:31.854Z,62.11
2022-10-18T06:38:36.177Z,62.08
2022-10-18T06:39:40.284Z,62.15
2022-10-18T06:40:44.402Z,62.17
2022-10-18T06:41:48.521Z,62.15
2022-10-18T06:43:21.587Z,62.13
2022-10-18T06:44:25.859Z,62.16
2022-10-18T06:45:29.979Z,62.17
2022-10-18T06:46:34.106Z,62.17
2022-10-18T06:47:38.214Z,62.14
2022-10-18T06:48:42.347Z,62.17
2022-10-18T06:49:46.500Z,62.09
2022-10-18T06:50:50.617Z,62.16
2022-10-18T06:51:54.722Z,62.15
2022-10-18T06:52:58.827Z,62.15
2022-10-18T06:54:20.128Z,62.14
2022-10-18T06:55:24.283Z,62.15
2022-10-18T06:56:28.393Z,62.13
2022-10-18T06:57:32.505Z,62.11
2022-10-18T06:58:36.620Z,62.1
2022-10-18T06:59:40.722Z,62.05
2022-10-18T07:00:44.842Z,61.99
2022-10-18T07:01:49.138Z,61.92
2022-10-18T07:02:53.290Z,61.93
2022-10-18T07:03:57.425Z,61.86
2022-10-18T07:05:01.534Z,61.8
2022-10-18T07:06:05.646Z,61.71
2022-10-18T07:07:09.776Z,61.61
2022-10-18T07:08:13.928Z,61.65
2022-10-18T07:09:18.080Z,61.72
2022-10-18T07:10:22.277Z,61.75
2022-10-18T07:11:26.365Z,61.66
2022-10-18T07:12:30.479Z,61.67
2022-10-18T07:13:35.365Z,61.63
2022-10-18T07:14:39.466Z,61.42
2022-10-18T07:15:43.587Z,61.39
2022-10-18T07:16:47.709Z,61.34
2022-10-18T07:17:51.826Z,61.27
2022-10-18T07:18:55.922Z,61.23
2022-10-18T07:20:00.020Z,61.24
2022-10-18T07:21:04.112Z,61.21
2022-10-18T07:22:08.235Z,61.17
2022-10-18T07:23:12.348Z,61.2
2022-10-18T07:24:16.455Z,61.17
2022-10-18T07:25:20.597Z,61.17
2022-10-18T07:26:24.713Z,61.13
2022-10-18T07:27:28.924Z,61.11
2022-10-18T07:28:33.307Z,61.09
2022-10-18T07:29:37.454Z,61.11
2022-10-18T07:30:41.631Z,61.07
2022-10-18T07:31:45.761Z,61.04
2022-10-18T07:32:49.865Z,60.9
2022-10-18T07:33:53.994Z,60.9
2022-10-18T07:34:58.203Z,60.89
2022-10-18T07:36:02.376Z,60.7
2022-10-18T07:37:06.489Z,60.77
2022-10-18T07:38:10.622Z,60.74
2022-10-18T07:39:14.739Z,60.73
2022-10-18T07:40:18.876Z,60.79
2022-10-18T07:41:22.996Z,60.76
2022-10-18T07:42:27.110Z,60.85
2022-10-18T07:43:31.230Z,60.85
2022-10-18T07:44:35.344Z,60.93
2022-10-18T07:45:39.554Z,60.87
2022-10-18T07:46:43.681Z,60.89
2022-10-18T07:47:47.840Z,60.88
2022-10-18T07:48:52.004Z,60.94
2022-10-18T07:49:56.113Z,60.89
2022-10-18T07:51:00.214Z,61
2022-10-18T07:52:04.358Z,60.84
2022-10-18T07:53:08.464Z,60.77
2022-10-18T07:54:12.626Z,60.84
2022-10-18T07:55:16.747Z,60.89
2022-10-18T07:56:21.625Z,60.86
2022-10-18T07:57:25.768Z,60.79
2022-10-18T07:58:29.895Z,60.82
2022-10-18T07:59:34.014Z,60.8
2022-10-18T08:00:38.143Z,60.81
2022-10-18T08:01:42.521Z,60.8
2022-10-18T08:02:46.732Z,60.63
2022-10-18T08:03:50.850Z,60.59
2022-10-18T08:04:54.951Z,60.59
2022-10-18T08:05:59.093Z,60.01
2022-10-18T08:07:03.207Z,59.86
2022-10-18T08:08:10.051Z,59.58
2022-10-18T08:09:14.183Z,59.82
2022-10-18T08:10:18.400Z,59.95
2022-10-18T08:11:22.573Z,59.44
2022-10-18T08:12:26.698Z,59.3
2022-10-18T08:13:30.816Z,58.95
2022-10-18T08:14:34.902Z,59.04
2022-10-18T08:15:39.000Z,59.55
2022-10-18T08:16:43.099Z,60
2022-10-18T08:17:47.198Z,60.33
2022-10-18T08:18:51.325Z,60.51
2022-10-18T08:20:31.608Z,60.68
2022-10-18T08:21:35.744Z,60.74
2022-10-18T08:22:39.883Z,60.78
2022-10-18T08:23:43.972Z,60.77
2022-10-18T08:24:48.107Z,60.74
2022-10-18T08:25:52.215Z,60.73
2022-10-18T08:26:56.311Z,60.69
2022-10-18T08:28:00.391Z,60.7
2022-10-18T08:29:31.925Z,60.63
2022-10-18T08:30:36.283Z,60.58
2022-10-18T08:31:40.453Z,60.56
2022-10-18T08:32:44.617Z,60.5
2022-10-18T08:33:48.759Z,60.49
2022-10-18T08:34:52.879Z,60.44
2022-10-18T08:35:57.011Z,60.4
2022-10-18T08:37:01.121Z,60.36
2022-10-18T08:38:05.260Z,60.3
2022-10-18T08:39:09.381Z,60.24
2022-10-18T08:40:13.487Z,60.21
2022-10-18T08:41:17.630Z,60.13
2022-10-18T08:42:21.737Z,60.1
2022-10-18T08:43:26.114Z,60.07
2022-10-18T08:44:30.282Z,60.04
2022-10-18T08:45:47.083Z,60.02
2022-10-18T08:46:51.252Z,59.96
2022-10-18T08:47:55.377Z,59.93
2022-10-18T08:48:59.492Z,59.92
2022-10-18T08:50:03.619Z,59.9
2022-10-18T08:51:07.708Z,59.8
2022-10-18T08:52:11.842Z,59.8
2022-10-18T08:53:15.981Z,59.73
2022-10-18T08:54:20.086Z,59.65
2022-10-18T08:55:24.206Z,59.64
2022-10-18T08:56:28.307Z,59.6
2022-10-18T08:57:33.889Z,59.58
2022-10-18T08:58:38.158Z,59.54
2022-10-18T08:59:42.343Z,59.55
2022-10-18T09:00:46.478Z,59.51
2022-10-18T09:01:50.682Z,59.46
2022-10-18T09:02:55.225Z,59.41
2022-10-18T09:03:59.393Z,59.38
2022-10-18T09:05:03.534Z,59.32
2022-10-18T09:06:07.999Z,59.3
2022-10-18T09:07:12.113Z,59.29
2022-10-18T09:08:16.236Z,59.19
2022-10-18T09:09:20.334Z,59.21
2022-10-18T09:10:24.591Z,59.15
2022-10-18T09:11:28.686Z,59.11
2022-10-18T09:12:33.790Z,59.06
2022-10-18T09:13:38.039Z,59.06
2022-10-18T09:14:42.179Z,59.06
2022-10-18T09:15:46.302Z,59.03
2022-10-18T09:16:50.420Z,59.03
2022-10-18T09:17:54.572Z,58.96
2022-10-18T09:18:58.699Z,58.96
2022-10-18T09:20:02.859Z,58.96
2022-10-18T09:21:07.004Z,58.93
2022-10-18T09:22:11.705Z,58.93
2022-10-18T09:23:15.879Z,58.95
2022-10-18T09:24:20.016Z,58.92
2022-10-18T09:25:24.149Z,58.9
2022-10-18T09:26:28.271Z,58.86
2022-10-18T09:27:32.463Z,58.88
2022-10-18T09:28:36.817Z,58.87
2022-10-18T09:29:40.979Z,58.84
2022-10-18T09:30:45.103Z,58.82
2022-10-18T09:31:49.231Z,58.83
2022-10-18T09:32:53.358Z,58.83
2022-10-18T09:33:57.495Z,58.83
2022-10-18T09:35:01.648Z,58.82
2022-10-18T09:36:05.813Z,58.74
2022-10-18T09:37:09.924Z,58.63
2022-10-18T09:38:14.286Z,58.62
2022-10-18T09:39:18.433Z,58.59
2022-10-18T09:40:22.712Z,58.63
2022-10-18T09:41:26.846Z,58.66
2022-10-18T09:42:32.211Z,58.63
2022-10-18T09:43:36.563Z,58.62
2022-10-18T09:44:41.086Z,58.59
2022-10-18T09:45:45.212Z,58.59
2022-10-18T09:46:49.325Z,58.54
2022-10-18T09:47:53.436Z,58.52
2022-10-18T09:48:57.546Z,58.53
2022-10-18T09:50:01.660Z,58.49
2022-10-18T09:51:05.769Z,58.48
2022-10-18T09:52:09.893Z,58.48
2022-10-18T09:53:14.015Z,58.46
2022-10-18T09:54:18.125Z,58.47
2022-10-18T09:55:22.217Z,58.43
2022-10-18T09:56:26.424Z,58.44
2022-10-18T09:57:31.187Z,58.42
2022-10-18T09:58:35.540Z,58.39
2022-10-18T09:59:39.662Z,58.39
2022-10-18T10:00:43.782Z,58.38
2022-10-18T10:01:47.931Z,58.38
2022-10-18T10:02:52.350Z,58.36
2022-10-18T10:03:56.521Z,58.33
2022-10-18T10:05:00.936Z,58.35
2022-10-18T10:06:05.168Z,58.33
2022-10-18T10:07:09.281Z,58.28
2022-10-18T10:08:13.398Z,58.29
2022-10-18T10:09:17.535Z,58.32
2022-10-18T10:10:21.630Z,58.32
2022-10-18T10:11:25.743Z,58.3
2022-10-18T10:12:29.880Z,58.34
2022-10-18T10:13:34.016Z,58.24
2022-10-18T10:14:38.189Z,58.26
2022-10-18T10:15:44.385Z,58.26
2022-10-18T10:16:48.534Z,58.25
2022-10-18T10:17:52.806Z,58.25
2022-10-18T10:18:56.970Z,58.24
2022-10-18T10:20:01.309Z,58.23
2022-10-18T10:21:05.510Z,58.25
2022-10-18T10:22:09.666Z,58.21
2022-10-18T10:23:13.991Z,58.23
2022-10-18T10:24:18.129Z,58.25
2022-10-18T10:25:22.241Z,58.21
2022-10-18T10:26:26.425Z,58.16
2022-10-18T10:27:31.627Z,58.25
2022-10-18T10:28:36.267Z,58.25
2022-10-18T10:29:46.804Z,58.26
2022-10-18T10:30:50.950Z,58.2
2022-10-18T10:31:55.098Z,58.26
2022-10-18T10:32:59.254Z,58.21
2022-10-18T10:34:03.396Z,58.16
2022-10-18T10:35:14.391Z,58.13
2022-10-18T10:36:26.787Z,58.09
2022-10-18T10:37:31.987Z,58.16
2022-10-18T10:38:36.215Z,58.15
2022-10-18T10:39:42.817Z,58.11
2022-10-18T10:40:47.269Z,58.11
2022-10-18T10:41:51.428Z,58.1
2022-10-18T10:43:36.855Z,58.13
2022-10-18T10:44:41.794Z,58.1
2022-10-18T10:45:45.928Z,58.09
2022-10-18T10:46:50.101Z,58.08
2022-10-18T10:47:54.237Z,58.11
2022-10-18T10:49:53.662Z,58.03
2022-10-18T10:50:57.780Z,58.09
2022-10-18T10:52:28.236Z,58.04
2022-10-18T10:53:32.690Z,58.06
2022-10-18T10:54:36.806Z,58.06
2022-10-18T10:55:40.937Z,58.06
2022-10-18T10:56:45.072Z,58.03
2022-10-18T10:57:49.196Z,58.02
2022-10-18T10:58:53.468Z,58.06
2022-10-18T10:59:57.627Z,58.05
2022-10-18T11:01:01.753Z,58.05
2022-10-18T11:02:05.941Z,57.98
2022-10-18T11:03:31.227Z,58
2022-10-18T11:04:35.465Z,57.97
2022-10-18T11:05:39.578Z,58
2022-10-18T11:06:43.708Z,58
2022-10-18T11:07:47.873Z,58
2022-10-18T11:08:52.014Z,58.01
2022-10-18T11:09:56.137Z,58
2022-10-18T11:11:00.262Z,58.06
2022-10-18T11:12:04.388Z,58.03
2022-10-18T11:13:08.522Z,58.02
2022-10-18T11:14:28.260Z,58.01
2022-10-18T11:15:32.462Z,58.05
2022-10-18T11:16:36.678Z,58.02
2022-10-18T11:17:40.820Z,58.04
2022-10-18T11:18:44.962Z,58.09
2022-10-18T11:19:49.077Z,58.02
2022-10-18T11:20:53.640Z,58.02
2022-10-18T11:21:57.757Z,58.02
2022-10-18T11:23:01.917Z,58.09
2022-10-18T11:24:06.058Z,58.12
2022-10-18T11:25:10.191Z,58.03
2022-10-18T11:26:14.346Z,58.02
2022-10-18T11:27:18.477Z,58.07
2022-10-18T11:28:22.621Z,58.05
2022-10-18T11:29:26.738Z,58.1
2022-10-18T11:30:30.856Z,58.11
2022-10-18T11:31:35.014Z,58.11
2022-10-18T11:32:39.169Z,58.09
2022-10-18T11:34:11.294Z,58.11
2022-10-18T11:35:15.395Z,58.03
2022-10-18T11:36:19.668Z,58.07
2022-10-18T11:37:42.610Z,58.1
2022-10-18T11:38:46.832Z,58.11
2022-10-18T11:39:50.967Z,58.15
2022-10-18T11:40:55.063Z,58.06
2022-10-18T11:41:59.141Z,58.09
2022-10-18T11:43:03.209Z,58.06
2022-10-18T11:44:07.291Z,58.08
2022-10-18T11:45:11.386Z,58.1
2022-10-18T11:46:15.488Z,58.12
2022-10-18T11:47:19.565Z,58.09
2022-10-18T11:48:23.637Z,58.1
2022-10-18T11:49:27.710Z,58.14
2022-10-18T11:50:31.798Z,58.11
2022-10-18T11:52:09.531Z,58.17
2022-10-18T11:53:13.730Z,58.15
2022-10-18T11:54:17.814Z,58.24
2022-10-18T11:55:21.875Z,58.25
2022-10-18T11:56:25.980Z,58.32
2022-10-18T11:57:30.576Z,58.29
2022-10-18T11:58:34.983Z,58.24
2022-10-18T11:59:39.092Z,58.24
2022-10-18T12:00:43.177Z,58.26
2022-10-18T12:01:47.257Z,58.31
2022-10-18T12:02:51.487Z,58.25
2022-10-18T12:03:55.584Z,58.27
2022-10-18T12:05:25.747Z,58.29
2022-10-18T12:06:29.798Z,58.28
2022-10-18T12:07:34.527Z,58.33
2022-10-18T12:08:38.576Z,58.44
2022-10-18T12:09:42.754Z,58.46
2022-10-18T12:11:07.316Z,58.54
2022-10-18T12:12:11.372Z,58.58
2022-10-18T12:13:15.428Z,58.64
2022-10-18T12:14:19.513Z,58.66
2022-10-18T12:15:23.581Z,58.74
2022-10-18T12:17:20.599Z,58.75
2022-10-18T12:18:40.107Z,58.79
2022-10-18T12:19:44.208Z,58.87
2022-10-18T12:20:48.313Z,58.88
2022-10-18T12:21:52.386Z,58.9
2022-10-18T12:22:56.449Z,58.94
2022-10-18T12:24:00.530Z,58.94
2022-10-18T12:25:04.624Z,58.9
2022-10-18T12:26:08.714Z,58.92
2022-10-18T12:27:12.795Z,58.89
2022-10-18T12:28:16.892Z,58.89
2022-10-18T12:29:20.946Z,58.9
2022-10-18T12:30:25.024Z,58.88
2022-10-18T12:31:29.123Z,58.8
2022-10-18T12:32:34.604Z,58.71
2022-10-18T12:33:38.918Z,58.67
2022-10-18T12:34:43.042Z,58.67
2022-10-18T12:35:47.147Z,58.65
2022-10-18T12:36:51.458Z,58.68
2022-10-18T12:37:55.600Z,58.67
2022-10-18T12:38:59.678Z,58.64
2022-10-18T12:40:21.376Z,58.65
2022-10-18T12:41:25.661Z,58.71
2022-10-18T12:42:29.741Z,58.7
2022-10-18T12:43:33.834Z,58.71
2022-10-18T12:44:37.992Z,58.73
2022-10-18T12:45:42.197Z,58.72
2022-10-18T12:46:46.272Z,58.72
2022-10-18T12:47:50.380Z,58.73
2022-10-18T12:48:54.463Z,58.69
2022-10-18T12:49:58.591Z,58.63
2022-10-18T12:51:02.674Z,58.62
2022-10-18T12:52:06.749Z,58.6
2022-10-18T12:53:10.831Z,58.63
2022-10-18T12:54:14.938Z,58.67
2022-10-18T12:55:19.691Z,58.66
2022-10-18T12:56:27.100Z,58.73
2022-10-18T12:57:32.191Z,58.71
2022-10-18T12:58:36.481Z,58.6
2022-10-18T12:59:40.600Z,58.59
2022-10-18T13:00:44.711Z,58.73
2022-10-18T13:01:49.075Z,58.83
2022-10-18T13:02:53.184Z,58.81
2022-10-18T13:03:57.306Z,58.82
2022-10-18T13:05:01.854Z,58.81
2022-10-18T13:06:08.643Z,58.83
2022-10-18T13:07:12.706Z,58.89
2022-10-18T13:08:16.769Z,58.71
2022-10-18T13:09:20.893Z,58.56
2022-10-18T13:10:24.990Z,58.66
2022-10-18T13:11:29.080Z,58.58
2022-10-18T13:12:33.176Z,58.64
2022-10-18T13:13:42.081Z,58.62
2022-10-18T13:15:25.240Z,58.63
2022-10-18T13:16:30.028Z,58.55
2022-10-18T13:17:35.223Z,58.66
2022-10-18T13:18:39.429Z,58.7
2022-10-18T13:19:43.511Z,58.6
2022-10-18T13:20:47.581Z,58.52
2022-10-18T13:21:51.706Z,58.83
2022-10-18T13:22:55.785Z,58.95
2022-10-18T13:23:59.902Z,59.11
2022-10-18T13:25:04.022Z,59.2
2022-10-18T13:26:08.086Z,59.24
2022-10-18T13:27:37.223Z,59.32
2022-10-18T13:28:41.514Z,59.35
2022-10-18T13:29:45.624Z,59.39
2022-10-18T13:30:49.712Z,59.34
2022-10-18T13:31:53.808Z,59.34
2022-10-18T13:32:59.356Z,59.28
2022-10-18T13:34:03.475Z,59.21
2022-10-18T13:35:07.539Z,59.21
2022-10-18T13:36:11.652Z,59.15
2022-10-18T13:37:15.750Z,59.14
2022-10-18T13:38:19.831Z,59.13
2022-10-18T13:39:23.895Z,59.14
2022-10-18T13:40:27.980Z,59.12
2022-10-18T13:41:36.775Z,59.12
2022-10-18T13:42:40.864Z,59.08
2022-10-18T13:43:46.898Z,59.06
2022-10-18T13:44:53.009Z,59.02
2022-10-18T13:45:57.082Z,59.02
2022-10-18T13:47:01.248Z,58.97
2022-10-18T13:48:05.334Z,59
2022-10-18T13:49:09.422Z,58.92
2022-10-18T13:50:13.726Z,58.89
2022-10-18T13:51:17.885Z,58.87
2022-10-18T13:52:21.994Z,58.85
2022-10-18T13:53:26.097Z,58.81
2022-10-18T13:54:30.191Z,58.79
2022-10-18T13:55:34.277Z,58.8
2022-10-18T13:56:38.361Z,58.76
2022-10-18T13:57:42.473Z,58.76
2022-10-18T13:59:15.081Z,58.7
2022-10-18T14:00:19.308Z,58.69
2022-10-18T14:01:23.593Z,58.67
2022-10-18T14:03:00.017Z,58.67